Time;durP1;ratioP1;P1;durP2;ratioP2;P2;SDS_P1;SDS_P2;PMS_P1;PMS_P2;Temp;Humidity;BMP_temperature;BMP_pressure;BME280_temperature;BME280_humidity;BME280_pressure;Samples;Min_cycle;Max_cycle;Signal;HPM_P1;HPM_P2
2022/12/12 09:14:52;;;;;;;3.30;3.00;;;;;;;2.52;100.00;98745.55;1795660;77;23599;-45
2022/12/12 09:17:19;;;;;;;3.55;2.90;;;;;;;2.51;100.00;98746.84;1754992;81;21020;-46
2022/12/12 09:19:45;;;;;;;3.83;3.22;;;;;;;2.49;100.00;98749.38;1712129;81;21059;-47
2022/12/12 09:22:12;;;;;;;3.85;3.45;;;;;;;2.47;100.00;98748.52;1714138;82;21560;-48
2022/12/12 09:24:38;;;;;;;3.85;3.15;;;;;;;2.45;100.00;98759.27;1685189;83;21119;-47
2022/12/12 09:27:05;;;;;;;3.80;2.95;;;;;;;2.42;100.00;98755.36;1712366;82;20980;-43
2022/12/12 09:29:31;;;;;;;3.75;3.08;;;;;;;2.43;100.00;98754.93;1684661;83;21029;-42
2022/12/12 09:32:22;;;;;;;6.37;3.00;;;;;;;2.45;100.00;98760.56;1709417;81;20956;-43
2022/12/12 09:35:06;;;;;;;4.65;3.45;;;;;;;2.43;100.00;98754.93;1682194;83;21390;-41
2022/12/12 09:37:33;;;;;;;5.22;3.58;;;;;;;2.43;100.00;98754.93;1714066;82;21074;-47
2022/12/12 09:40:00;;;;;;;6.22;4.40;;;;;;;2.46;100.00;98764.00;1683448;83;21072;-44
2022/12/12 09:42:29;;;;;;;9.18;5.75;;;;;;;2.50;100.00;98762.76;1707423;82;21011;-47
2022/12/12 09:45:06;;;;;;;8.58;5.00;;;;;;;2.55;100.00;98766.24;1701351;82;21008;-47
2022/12/12 09:51:34;;;;;;;4.97;3.90;;;;;;;2.71;100.00;98773.66;1681983;84;21076;-43
2022/12/12 10:06:36;;;;;;;5.47;3.85;;;;;;;2.71;100.00;98778.82;1711914;81;21034;-47
2022/12/12 10:10:25;;;;;;;5.62;4.10;;;;;;;2.77;100.00;98794.36;1674754;83;21076;-48
2022/12/12 10:13:18;;;;;;;5.78;4.28;;;;;;;2.76;100.00;98790.05;1617292;86;21486;-47
2022/12/12 10:15:53;;;;;;;6.10;4.62;;;;;;;2.77;100.00;98787.04;1673941;84;21007;-43
2022/12/12 10:18:31;;;;;;;6.97;4.42;;;;;;;2.76;100.00;98788.77;1657033;84;21481;-42
2022/12/12 10:21:02;;;;;;;7.15;4.75;;;;;;;2.76;100.00;98798.23;1673602;84;20995;-41
2022/12/12 10:23:54;;;;;;;5.87;4.60;;;;;;;2.73;100.00;98787.47;1673495;84;21071;-43
2022/12/12 10:26:24;;;;;;;7.55;5.15;;;;;;;2.70;100.00;98788.72;1670952;84;21039;-41
2022/12/12 10:28:54;;;;;;;11.28;6.70;;;;;;;2.64;100.00;98783.51;1669492;84;21605;-40
2022/12/12 10:31:53;;;;;;;10.40;7.67;;;;;;;2.63;100.00;98798.57;1671360;84;21411;-42
2022/12/12 10:34:34;;;;;;;7.58;5.55;;;;;;;2.61;100.00;98808.03;1669347;84;21106;-47
2022/12/12 10:37:18;;;;;;;6.47;5.08;;;;;;;2.61;100.00;98821.80;1664349;84;21435;-51
2022/12/12 10:40:14;;;;;;;7.08;5.58;;;;;;;2.65;100.00;98823.97;1668063;84;21052;-51
2022/12/12 10:43:01;;;;;;;8.88;6.95;;;;;;;2.69;100.00;98827.45;1671627;84;21381;-51
2022/12/12 10:46:00;;;;;;;9.73;6.50;;;;;;;2.70;100.00;98826.17;1669611;84;21462;-52
2022/12/12 11:03:19;;;;;;;6.78;5.87;;;;;;;3.24;100.00;98850.66;1792764;78;23368;-45
2022/12/12 11:05:46;;;;;;;7.60;5.67;;;;;;;3.18;100.00;98863.55;1742428;80;21077;-52
2022/12/12 11:08:28;;;;;;;6.60;5.72;;;;;;;3.11;100.00;98860.48;1744979;80;20963;-46
2022/12/12 11:11:21;;;;;;;7.42;5.50;;;;;;;3.05;100.00;98852.27;1746899;80;21051;-52
2022/12/12 11:13:55;;;;;;;8.73;6.10;;;;;;;3.00;100.00;98849.20;1743893;80;20976;-46
2022/12/12 11:16:25;;;;;;;13.88;7.25;;;;;;;2.94;100.00;98851.32;1742363;80;21060;-46
2022/12/12 11:19:05;;;;;;;8.23;6.22;;;;;;;2.92;100.00;98851.31;1742026;80;20973;-46
2022/12/12 11:21:35;;;;;;;9.68;6.35;;;;;;;2.86;100.00;98857.73;1741510;80;21656;-46
2022/12/12 11:24:08;;;;;;;6.30;5.08;;;;;;;2.81;100.00;98862.42;1744649;80;20988;-46
2022/12/12 11:26:46;;;;;;;9.75;6.70;;;;;;;2.76;100.00;98865.39;1722854;81;21668;-45
2022/12/12 11:29:18;;;;;;;5.72;5.08;;;;;;;2.74;100.00;98864.52;1744921;80;21409;-52
2022/12/12 11:31:45;;;;;;;7.97;6.05;;;;;;;2.72;100.00;98867.49;1739782;80;21593;-45
2022/12/12 11:34:11;;;;;;;6.40;5.12;;;;;;;2.71;100.00;98877.39;1751595;80;21362;-52
2022/12/12 11:36:39;;;;;;;7.33;5.90;;;;;;;2.68;100.00;98872.22;1724090;80;21056;-46
2022/12/12 11:39:26;;;;;;;6.75;5.22;;;;;;;2.64;100.00;98882.50;1748094;80;21016;-45
2022/12/12 11:42:02;;;;;;;8.08;5.87;;;;;;;2.63;100.00;98878.63;1685222;83;21116;-46
2022/12/12 11:44:35;;;;;;;8.13;6.17;;;;;;;2.59;100.00;98894.50;1682525;84;21269;-52
2022/12/12 11:47:22;;;;;;;9.30;6.00;;;;;;;2.59;100.00;98886.75;1679904;83;21657;-52
2022/12/12 11:49:57;;;;;;;8.18;6.10;;;;;;;2.58;100.00;98890.19;1665508;83;21068;-51
2022/12/12 11:52:27;;;;;;;8.28;6.12;;;;;;;2.58;100.00;98899.66;1702931;82;21418;-44
2022/12/12 11:54:54;;;;;;;9.55;6.40;;;;;;;2.55;100.00;98894.05;1694968;82;21012;-45
2022/12/12 11:58:02;;;;;;;9.25;6.50;;;;;;;2.56;100.00;98891.05;1698664;83;21061;-45
2022/12/12 12:00:40;;;;;;;8.85;6.95;;;;;;;2.57;100.00;98903.96;1700745;84;21400;-51
